createdAt,value
2023-09-09T00:00:29.993Z,2.03
2023-09-09T00:03:24.400Z,7.18
2023-09-09T00:06:17.218Z,9.82
2023-09-09T00:09:10.442Z,9.45
2023-09-09T00:12:04.108Z,8.63
2023-09-09T00:14:58.869Z,10.25
2023-09-09T00:17:53.995Z,9.30
2023-09-09T00:20:47.842Z,9.57
2023-09-09T00:23:42.045Z,8.75
2023-09-09T00:26:35.568Z,13.38
2023-09-09T00:29:28.511Z,10.15
2023-09-09T00:32:21.407Z,7.60
2023-09-09T00:35:15.648Z,8.60
2023-09-09T00:38:08.771Z,8.50
2023-09-09T00:41:20.054Z,8.77
2023-09-09T00:44:13.383Z,9.05
2023-09-09T00:47:07.285Z,9.05
2023-09-09T00:50:01.329Z,8.75
2023-09-09T00:52:55.997Z,8.68
2023-09-09T00:55:50.269Z,7.95
2023-09-09T00:58:43.449Z,8.60
2023-09-09T01:01:36.546Z,10.18
2023-09-09T01:04:29.426Z,8.38
2023-09-09T01:07:22.626Z,6.85
2023-09-09T01:10:19.501Z,9.32
2023-09-09T01:13:13.211Z,8.32
2023-09-09T01:16:07.555Z,9.23
2023-09-09T01:19:01.065Z,7.70
2023-09-09T01:22:01.752Z,11.80
2023-09-09T01:24:58.944Z,10.57
2023-09-09T01:27:52.145Z,6.70
2023-09-09T01:30:45.285Z,9.77
2023-09-09T01:33:38.600Z,8.80
2023-09-09T01:36:31.362Z,7.43
2023-09-09T01:39:25.571Z,8.48
2023-09-09T01:42:19.866Z,9.45
2023-09-09T01:45:13.310Z,7.60
2023-09-09T01:48:07.788Z,8.02
2023-09-09T01:51:00.625Z,8.20
2023-09-09T01:53:53.668Z,8.40
2023-09-09T01:56:46.500Z,7.63
2023-09-09T01:59:41.245Z,11.20
2023-09-09T02:02:34.952Z,7.55
2023-09-09T02:05:28.712Z,7.45
2023-09-09T02:08:22.484Z,8.25
2023-09-09T02:11:15.622Z,7.32
2023-09-09T02:14:08.820Z,8.77
2023-09-09T02:17:03.593Z,7.75
2023-09-09T02:19:58.400Z,10.00
2023-09-09T02:22:51.644Z,8.32
2023-09-09T02:25:44.656Z,10.32
2023-09-09T02:28:37.827Z,8.20
2023-09-09T02:31:31.255Z,9.20
2023-09-09T02:34:25.835Z,8.43
2023-09-09T02:37:20.150Z,7.70
2023-09-09T02:40:13.636Z,7.72
2023-09-09T02:43:06.290Z,8.18
2023-09-09T02:45:59.528Z,9.73
2023-09-09T02:48:52.718Z,9.07
2023-09-09T02:51:47.098Z,8.93
2023-09-09T02:54:41.700Z,7.60
2023-09-09T02:57:34.782Z,11.48
2023-09-09T03:00:27.812Z,9.00
2023-09-09T03:03:21.501Z,7.38
2023-09-09T03:06:14.866Z,6.90
2023-09-09T03:09:08.842Z,7.75
2023-09-09T03:12:02.537Z,7.50
2023-09-09T03:14:55.682Z,7.07
2023-09-09T03:17:48.503Z,8.73
2023-09-09T03:20:41.831Z,7.80
2023-09-09T03:23:35.269Z,10.95
2023-09-09T03:26:33.016Z,9.23
2023-09-09T03:29:28.368Z,9.65
2023-09-09T03:32:21.547Z,8.95
2023-09-09T03:35:14.730Z,6.63
2023-09-09T03:38:08.539Z,8.10
2023-09-09T03:41:01.651Z,11.00
2023-09-09T03:43:55.961Z,8.10
2023-09-09T03:46:49.797Z,8.07
2023-09-09T03:49:42.801Z,8.65
2023-09-09T03:52:35.786Z,10.02
2023-09-09T03:55:28.808Z,7.45
2023-09-09T03:58:22.101Z,10.10
2023-09-09T04:01:17.151Z,8.73
2023-09-09T04:04:10.622Z,11.15
2023-09-09T04:07:06.175Z,8.63
2023-09-09T04:09:59.526Z,8.90
2023-09-09T04:12:52.776Z,6.97
2023-09-09T04:15:46.318Z,7.82
2023-09-09T04:18:46.849Z,9.60
2023-09-09T04:21:41.165Z,8.90
2023-09-09T04:24:34.904Z,10.50
2023-09-09T04:27:28.751Z,8.00
2023-09-09T04:30:21.457Z,9.98
2023-09-09T04:33:14.875Z,8.25
2023-09-09T04:36:08.988Z,7.38
2023-09-09T04:39:02.916Z,7.57
2023-09-09T04:41:55.761Z,9.18
2023-09-09T04:44:48.609Z,10.50
2023-09-09T04:47:41.915Z,9.18
2023-09-09T04:50:34.708Z,8.48
2023-09-09T04:53:29.437Z,9.50
2023-09-09T04:56:23.172Z,7.97
2023-09-09T04:59:16.711Z,7.35
2023-09-09T05:02:09.669Z,10.25
2023-09-09T05:05:05.225Z,12.90
2023-09-09T05:07:58.938Z,9.52
2023-09-09T05:10:53.352Z,11.43
2023-09-09T05:13:46.661Z,9.73
2023-09-09T05:16:40.172Z,11.05
2023-09-09T05:19:34.103Z,10.50
2023-09-09T05:22:27.709Z,7.85
2023-09-09T05:25:20.478Z,10.40
2023-09-09T05:28:14.885Z,9.50
2023-09-09T05:31:08.652Z,8.30
2023-09-09T05:34:01.921Z,9.98
2023-09-09T05:36:54.618Z,9.10
2023-09-09T05:39:49.828Z,9.02
2023-09-09T05:42:42.978Z,10.38
2023-09-09T05:45:37.078Z,10.95
2023-09-09T05:48:30.924Z,9.18
2023-09-09T05:51:23.508Z,9.27
2023-09-09T05:54:16.988Z,10.30
2023-09-09T05:57:10.037Z,10.52
2023-09-09T06:00:03.285Z,9.52
2023-09-09T06:02:57.927Z,8.73
2023-09-09T06:05:50.676Z,9.23
2023-09-09T06:08:44.196Z,8.77
2023-09-09T06:11:37.993Z,8.43
2023-09-09T06:14:30.906Z,11.52
2023-09-09T06:17:23.759Z,10.18
2023-09-09T06:20:18.374Z,11.50
2023-09-09T06:23:11.986Z,9.70
2023-09-09T06:26:04.906Z,10.65
2023-09-09T06:28:57.957Z,10.80
2023-09-09T06:31:51.785Z,8.43
2023-09-09T06:34:44.708Z,8.43
2023-09-09T06:37:39.269Z,10.85
2023-09-09T06:40:33.887Z,8.77
2023-09-09T06:43:26.881Z,8.65
2023-09-09T06:46:20.242Z,11.10
2023-09-09T06:49:13.792Z,10.45
2023-09-09T06:52:07.864Z,8.40
2023-09-09T06:55:02.153Z,8.73
2023-09-09T06:57:55.945Z,9.80
2023-09-09T07:00:51.679Z,8.43
2023-09-09T07:03:44.763Z,7.70
2023-09-09T07:06:37.695Z,9.80
2023-09-09T07:09:32.228Z,7.53
2023-09-09T07:12:27.768Z,8.00
2023-09-09T07:15:21.357Z,8.38
2023-09-09T07:18:15.007Z,10.55
2023-09-09T07:21:08.631Z,9.05
2023-09-09T07:24:01.707Z,16.92
2023-09-09T07:26:54.805Z,9.75
2023-09-09T07:29:48.997Z,11.25
2023-09-09T07:32:41.789Z,8.98
2023-09-09T07:35:37.323Z,10.20
2023-09-09T07:38:30.708Z,10.63
2023-09-09T07:41:23.955Z,8.77
2023-09-09T07:44:16.859Z,9.15
2023-09-09T07:47:11.553Z,7.53
2023-09-09T07:50:05.779Z,8.20
2023-09-09T07:52:58.797Z,7.15
2023-09-09T07:55:53.038Z,7.10
2023-09-09T07:58:46.065Z,7.22
2023-09-09T08:01:39.082Z,6.65
2023-09-09T08:04:33.723Z,8.50
2023-09-09T08:07:26.840Z,9.15
2023-09-09T08:10:21.671Z,8.55
2023-09-09T08:13:15.023Z,7.80
2023-09-09T08:16:08.118Z,8.73
2023-09-09T08:19:01.493Z,7.22
2023-09-09T08:21:56.318Z,9.35
2023-09-09T08:24:49.881Z,7.07
2023-09-09T08:27:43.069Z,8.02
2023-09-09T08:30:35.929Z,10.02
2023-09-09T08:33:29.649Z,8.10
2023-09-09T08:36:23.159Z,7.60
2023-09-09T08:39:17.874Z,6.97
2023-09-09T08:42:20.965Z,9.20
2023-09-09T08:45:21.721Z,7.88
2023-09-09T08:48:21.454Z,8.55
2023-09-09T08:51:16.417Z,9.88
2023-09-09T08:57:23.789Z,6.72
2023-09-09T09:00:19.325Z,7.47
2023-09-09T09:03:14.025Z,7.35
2023-09-09T09:06:07.784Z,6.88
2023-09-09T09:09:01.213Z,6.60
2023-09-09T09:11:55.572Z,8.38
2023-09-09T09:14:50.324Z,8.55
2023-09-09T09:17:45.510Z,8.85
2023-09-09T09:20:41.512Z,8.10
2023-09-09T09:23:36.261Z,6.40
2023-09-09T09:26:30.822Z,6.72
2023-09-09T09:29:24.044Z,8.15
2023-09-09T09:32:18.536Z,5.97
2023-09-09T09:35:24.402Z,6.90
2023-09-09T09:38:19.127Z,5.85
2023-09-09T09:41:12.260Z,6.03
2023-09-09T09:44:05.539Z,6.18
2023-09-09T09:47:02.778Z,7.60
2023-09-09T09:49:57.421Z,6.55
2023-09-09T09:52:58.848Z,8.05
2023-09-09T09:55:53.083Z,5.68
2023-09-09T09:58:47.598Z,6.47
2023-09-09T10:01:41.497Z,7.47
2023-09-09T10:04:40.263Z,7.15
2023-09-09T10:07:37.928Z,9.10
2023-09-09T10:10:35.508Z,7.50
2023-09-09T10:13:36.928Z,8.18
2023-09-09T10:16:31.543Z,6.85
2023-09-09T10:19:26.224Z,7.57
2023-09-09T10:22:22.171Z,7.35
2023-09-09T10:25:17.416Z,6.22
2023-09-09T10:28:12.650Z,6.25
2023-09-09T10:31:12.506Z,7.78
2023-09-09T10:34:10.251Z,7.85
2023-09-09T10:37:05.148Z,7.10
2023-09-09T10:39:58.499Z,9.52
2023-09-09T10:42:54.871Z,11.65
2023-09-09T10:45:50.464Z,17.50
2023-09-09T10:48:46.549Z,14.63
2023-09-09T10:51:51.442Z,15.75
2023-09-09T10:54:47.628Z,10.60
2023-09-09T10:57:41.660Z,14.50
2023-09-09T11:00:41.539Z,17.25
2023-09-09T11:03:46.836Z,16.25
2023-09-09T11:06:40.789Z,17.83
2023-09-09T11:09:34.618Z,15.48
2023-09-09T11:12:29.257Z,12.82
2023-09-09T11:15:27.300Z,13.23
2023-09-09T11:18:24.229Z,11.07
2023-09-09T11:21:18.133Z,15.63
2023-09-09T11:24:11.818Z,15.38
2023-09-09T11:27:06.940Z,11.60
2023-09-09T11:30:01.973Z,10.85
2023-09-09T11:32:55.569Z,12.48
2023-09-09T11:35:50.405Z,8.32
2023-09-09T11:38:44.730Z,10.63
2023-09-09T11:41:38.083Z,11.98
2023-09-09T11:44:39.199Z,8.55
2023-09-09T11:47:32.777Z,8.63
2023-09-09T11:50:40.251Z,8.45
2023-09-09T11:53:34.812Z,9.13
2023-09-09T11:56:28.358Z,10.95
2023-09-09T11:59:22.600Z,10.85
2023-09-09T12:02:20.518Z,11.10
2023-09-09T12:05:15.979Z,10.70
2023-09-09T12:08:09.191Z,10.63
2023-09-09T12:11:07.903Z,9.25
2023-09-09T12:14:02.247Z,8.48
2023-09-09T12:16:55.294Z,7.38
2023-09-09T12:19:56.337Z,8.80
2023-09-09T12:22:51.188Z,7.95
2023-09-09T12:25:44.022Z,9.45
2023-09-09T12:28:38.516Z,7.60
2023-09-09T12:31:34.132Z,8.82
2023-09-09T12:34:28.640Z,7.53
2023-09-09T12:37:22.109Z,7.82
2023-09-09T12:40:15.006Z,9.55
2023-09-09T12:43:11.679Z,6.88
2023-09-09T12:46:08.898Z,7.70
2023-09-09T12:49:04.695Z,9.45
2023-09-09T12:51:58.244Z,6.57
2023-09-09T12:54:51.223Z,7.22
2023-09-09T12:57:44.221Z,8.00
2023-09-09T13:00:37.309Z,11.27
2023-09-09T13:03:31.785Z,7.80
2023-09-09T13:06:25.341Z,9.75
2023-09-09T13:09:18.635Z,6.55
2023-09-09T13:12:12.362Z,8.02
2023-09-09T13:15:05.966Z,8.50
2023-09-09T13:17:59.550Z,8.95
2023-09-09T13:20:54.416Z,6.10
2023-09-09T13:23:47.137Z,6.43
2023-09-09T13:26:40.277Z,5.80
2023-09-09T13:29:33.298Z,8.07
2023-09-09T13:32:26.674Z,6.40
2023-09-09T13:35:20.189Z,8.00
2023-09-09T13:38:14.418Z,5.53
2023-09-09T13:41:07.571Z,6.85
2023-09-09T13:44:01.172Z,5.88
2023-09-09T13:46:54.171Z,6.05
2023-09-09T13:49:47.015Z,8.80
2023-09-09T13:52:40.299Z,7.03
2023-09-09T13:55:34.761Z,5.45
2023-09-09T13:58:28.055Z,5.63
2023-09-09T14:01:21.160Z,5.25
2023-09-09T14:04:14.722Z,5.78
2023-09-09T14:07:08.380Z,5.75
2023-09-09T14:10:01.320Z,5.32
2023-09-09T14:12:55.610Z,6.40
2023-09-09T14:15:49.750Z,5.43
2023-09-09T14:18:43.498Z,6.15
2023-09-09T14:21:37.609Z,6.90
2023-09-09T14:24:31.818Z,5.47
2023-09-09T14:27:25.384Z,5.35
2023-09-09T14:30:19.575Z,6.50
2023-09-09T14:33:15.629Z,5.43
2023-09-09T14:36:09.059Z,6.47
2023-09-09T14:39:02.508Z,6.20
2023-09-09T14:41:55.245Z,7.10
2023-09-09T14:44:49.891Z,4.95
2023-09-09T14:47:44.345Z,5.95
2023-09-09T14:50:37.502Z,6.88
2023-09-09T14:53:30.640Z,6.05
2023-09-09T14:56:24.136Z,7.30
2023-09-09T14:59:16.909Z,6.82
2023-09-09T15:02:10.367Z,6.32
2023-09-09T15:05:05.337Z,6.07
2023-09-09T15:07:58.570Z,6.95
2023-09-09T15:10:51.425Z,7.28
2023-09-09T15:13:45.040Z,6.00
2023-09-09T15:16:49.062Z,5.47
2023-09-09T15:19:42.216Z,6.65
2023-09-09T15:22:37.559Z,5.25
2023-09-09T15:25:32.084Z,5.63
2023-09-09T15:28:25.190Z,8.10
2023-09-09T15:31:18.416Z,9.10
2023-09-09T15:34:11.433Z,6.38
2023-09-09T15:37:04.622Z,6.40
2023-09-09T15:39:59.586Z,10.52
2023-09-09T15:42:52.272Z,10.40
2023-09-09T15:45:45.303Z,19.08
2023-09-09T15:48:38.744Z,7.57
2023-09-09T15:51:33.124Z,11.02
2023-09-09T15:54:26.261Z,7.80
2023-09-09T15:57:21.254Z,7.05
2023-09-09T16:00:14.426Z,6.60
2023-09-09T16:03:07.860Z,7.45
2023-09-09T16:06:05.777Z,7.45
2023-09-09T16:08:59.532Z,6.18
2023-09-09T16:11:52.817Z,7.22
2023-09-09T16:14:47.586Z,8.82
2023-09-09T16:17:40.969Z,7.75
2023-09-09T16:20:34.898Z,7.57
2023-09-09T16:23:29.015Z,8.73
2023-09-09T16:26:23.073Z,7.78
2023-09-09T16:29:16.232Z,8.48
2023-09-09T16:32:11.395Z,7.40
2023-09-09T16:35:04.665Z,10.18
2023-09-09T16:37:58.761Z,8.60
2023-09-09T16:40:54.458Z,11.10
2023-09-09T16:43:47.180Z,7.00
2023-09-09T16:46:40.539Z,9.82
2023-09-09T16:49:34.639Z,9.18
2023-09-09T16:52:28.591Z,9.82
2023-09-09T16:55:21.383Z,11.70
2023-09-09T16:58:14.481Z,7.32
2023-09-09T17:01:07.088Z,10.05
2023-09-09T17:04:00.578Z,9.13
2023-09-09T17:06:54.528Z,7.20
2023-09-09T17:09:47.221Z,7.47
2023-09-09T17:12:40.523Z,13.30
2023-09-09T17:15:34.019Z,10.80
2023-09-09T17:18:27.620Z,8.25
2023-09-09T17:21:20.429Z,8.38
2023-09-09T17:24:14.696Z,9.45
2023-09-09T17:27:08.842Z,8.52
2023-09-09T17:30:03.576Z,9.38
2023-09-09T17:32:57.352Z,8.63
2023-09-09T17:35:50.520Z,7.80
2023-09-09T17:38:43.542Z,8.20
2023-09-09T17:41:38.932Z,7.65
2023-09-09T17:44:32.488Z,7.95
2023-09-09T17:47:25.651Z,7.80
2023-09-09T17:50:19.783Z,8.82
2023-09-09T17:53:13.795Z,7.88
2023-09-09T17:56:07.486Z,8.27
2023-09-09T17:59:01.829Z,7.53
2023-09-09T18:01:55.727Z,7.82
2023-09-09T18:04:49.328Z,8.70
2023-09-09T18:07:42.719Z,8.73
2023-09-09T18:10:36.548Z,9.88
2023-09-09T18:13:29.662Z,8.23
2023-09-09T18:16:27.020Z,8.13
2023-09-09T18:19:20.764Z,9.18
2023-09-09T18:22:14.739Z,8.73
2023-09-09T18:25:07.620Z,9.20
2023-09-09T18:28:00.172Z,9.70
2023-09-09T18:30:58.199Z,9.10
2023-09-09T18:33:53.086Z,9.05
2023-09-09T18:36:46.603Z,9.07
2023-09-09T18:39:40.558Z,10.13
2023-09-09T18:42:33.360Z,10.80
2023-09-09T18:45:26.554Z,10.18
2023-09-09T18:48:19.537Z,10.75
2023-09-09T18:51:13.649Z,10.85
2023-09-09T18:54:06.705Z,10.45
2023-09-09T18:56:59.335Z,10.48
2023-09-09T18:59:52.476Z,11.93
2023-09-09T19:02:46.334Z,10.70
2023-09-09T19:05:39.921Z,10.23
2023-09-09T19:08:34.888Z,11.00
2023-09-09T19:11:28.411Z,11.10
2023-09-09T19:14:21.692Z,11.43
2023-09-09T19:17:14.491Z,10.90
2023-09-09T19:20:10.913Z,10.57
2023-09-09T19:23:05.968Z,12.13
2023-09-09T19:26:01.298Z,11.82
2023-09-09T19:28:54.511Z,9.85
2023-09-09T19:31:47.841Z,8.40
2023-09-09T19:34:43.465Z,9.38
2023-09-09T19:37:36.885Z,8.80
2023-09-09T19:40:30.403Z,9.43
2023-09-09T19:43:24.811Z,8.70
2023-09-09T19:46:17.322Z,8.75
2023-09-09T19:49:10.696Z,10.27
2023-09-09T19:52:03.826Z,8.43
2023-09-09T19:54:57.431Z,9.93
2023-09-09T19:57:50.456Z,10.02
2023-09-09T20:00:46.618Z,9.55
2023-09-09T20:03:39.648Z,7.90
2023-09-09T20:06:32.391Z,10.30
2023-09-09T20:09:25.146Z,11.40
2023-09-09T20:12:18.439Z,8.57
2023-09-09T20:15:12.017Z,9.93
2023-09-09T20:18:08.217Z,14.20
2023-09-09T20:21:02.444Z,11.65
2023-09-09T20:23:55.608Z,10.18
2023-09-09T20:26:48.830Z,9.00
2023-09-09T20:29:41.848Z,9.02
2023-09-09T20:32:35.984Z,9.70
2023-09-09T20:35:34.657Z,10.60
2023-09-09T20:38:28.451Z,8.85
2023-09-09T20:41:21.510Z,10.95
2023-09-09T20:44:14.330Z,9.80
2023-09-09T20:47:07.610Z,9.13
2023-09-09T20:50:00.938Z,8.80
2023-09-09T20:52:56.648Z,9.20
2023-09-09T20:55:49.359Z,10.55
2023-09-09T20:58:42.927Z,9.43
2023-09-09T21:01:36.967Z,9.52
2023-09-09T21:04:31.051Z,10.60
2023-09-09T21:07:24.725Z,6.90
2023-09-09T21:10:21.708Z,8.10
2023-09-09T21:13:14.363Z,8.68
2023-09-09T21:16:07.668Z,7.82
2023-09-09T21:19:00.533Z,7.07
2023-09-09T21:21:53.806Z,12.15
2023-09-09T21:24:47.359Z,8.20
2023-09-09T21:27:41.855Z,10.50
2023-09-09T21:30:35.063Z,7.82
2023-09-09T21:33:29.092Z,10.65
2023-09-09T21:36:22.438Z,8.88
2023-09-09T21:39:15.802Z,9.43
2023-09-09T21:42:08.471Z,9.88
2023-09-09T21:45:03.511Z,10.00
2023-09-09T21:47:56.573Z,10.60
2023-09-09T21:50:49.745Z,10.23
2023-09-09T21:53:43.378Z,11.07
2023-09-09T21:56:36.645Z,8.75
2023-09-09T21:59:29.466Z,10.23
2023-09-09T22:02:23.895Z,10.75
2023-09-09T22:05:17.144Z,9.85
2023-09-09T22:08:10.520Z,11.18
2023-09-09T22:11:05.324Z,10.15
2023-09-09T22:13:58.531Z,11.18
2023-09-09T22:16:52.647Z,10.93
2023-09-09T22:19:46.887Z,10.00
2023-09-09T22:22:41.297Z,12.48
2023-09-09T22:25:34.798Z,10.63
2023-09-09T22:28:27.805Z,9.35
2023-09-09T22:31:20.861Z,8.60
2023-09-09T22:34:13.963Z,10.27
2023-09-09T22:37:08.747Z,11.57
2023-09-09T22:40:01.867Z,10.93
2023-09-09T22:42:54.400Z,10.82
2023-09-09T22:45:49.186Z,11.95
2023-09-09T22:48:42.702Z,11.68
2023-09-09T22:51:35.874Z,12.77
2023-09-09T22:54:31.653Z,13.48
2023-09-09T22:57:24.372Z,12.32
2023-09-09T23:00:18.069Z,12.25
2023-09-09T23:03:12.309Z,10.68
2023-09-09T23:06:06.396Z,11.38
2023-09-09T23:08:59.622Z,11.75
2023-09-09T23:11:53.908Z,11.05
2023-09-09T23:14:47.856Z,11.50
2023-09-09T23:17:40.713Z,10.13
2023-09-09T23:20:34.626Z,10.23
2023-09-09T23:23:27.632Z,12.15
2023-09-09T23:26:20.667Z,16.60
2023-09-09T23:29:16.598Z,13.52
2023-09-09T23:32:10.256Z,10.93
2023-09-09T23:35:04.125Z,10.50
2023-09-09T23:37:58.624Z,10.18
2023-09-09T23:40:51.890Z,13.85
2023-09-09T23:43:44.796Z,9.85
2023-09-09T23:46:39.037Z,11.95
2023-09-09T23:49:32.686Z,11.18
2023-09-09T23:52:26.051Z,11.32
2023-09-09T23:55:19.570Z,10.32
2023-09-09T23:58:12.821Z,11.60
